• Join FlightAware (Why Join?)
  • Login
  • US Flag 
Gobble Gobble! 
07:27PM EST


 

Airport Tracker/Info


-or-


 

Live Flight TrackerFlight Track Log ✈ N831C ✈ 09-Mar-2014 ✈ KSHD - KJYO

Flight Track Log - Related Links

Times and Time Zones

All times are in EDT time to prevent confusion due to time zone crossing. See the N831C flight status page for this flight to view local times or setup timezone preferences in your user account.

Time Position Orientation Groundspeed Altitude Reporting Facility
EDT Latitude Longitude Course Direction KTS MPH feet Rate Location/Type
02:25PM 38.2833 -78.8333 64° Northeast 117 135 2,700  Level Potomac TRACON
02:26PM 38.3000 -78.8000 57° Northeast 125 144 3,400 780 Climbing Potomac TRACON
02:27PM 38.3333 -78.7500 50° Northeast 134 154 4,300 840 Climbing Potomac TRACON
02:28PM 38.3333 -78.7000 90° East 136 157 5,200 780 Climbing Potomac TRACON
02:29PM 38.3500 -78.6500 67° East 143 165 5,900 600 Climbing Potomac TRACON
02:30PM 38.3833 -78.6167 38° Northeast 154 177 6,500 540 Climbing Potomac TRACON
02:31PM 38.3697 -78.5646 64° Northeast  Level FlightAware Approximate
02:31PM 38.4000 -78.5667 67° East 163 188 7,000  Level Potomac TRACON
02:32PM 38.4167 -78.5000 72° East 177 204 7,000  Level Potomac TRACON
02:33PM 38.4333 -78.4500 67° East 181 208 7,000  Level Potomac TRACON
02:34PM 38.4667 -78.3833 57° Northeast 197 227 7,000  Level Potomac TRACON
02:35PM 38.5000 -78.3333 50° Northeast 189 217 7,000  Level Potomac TRACON
02:36PM 38.5333 -78.3000 38° Northeast 154 177 7,000  Level Potomac TRACON
02:37PM 38.5667 -78.2500 50° Northeast 172 198 7,100  Climbing Potomac TRACON
02:38PM 38.6000 -78.2000 50° Northeast 182 209 7,100  Level Potomac TRACON
02:39PM 38.6333 -78.1667 38° Northeast 195 224 7,100  Level Potomac TRACON
02:40PM 38.6667 -78.1000 57° Northeast 197 227 7,100 -60 Level Potomac TRACON
02:41PM 38.7000 -78.0667 38° Northeast 186 214 7,000 -480 Descending Potomac TRACON
02:42PM 38.7333 -78.0167 49° Northeast 183 211 6,200 -840 Descending Potomac TRACON
02:43PM 38.7667 -77.9667 49° Northeast 174 200 5,400 -780 Descending Potomac TRACON
02:44PM 38.8000 -77.9333 38° Northeast 177 204 4,800 -720 Descending Potomac TRACON
02:45PM 38.8333 -77.8833 49° Northeast 164 189 4,100 -420 Descending Potomac TRACON
02:46PM 38.8667 -77.8500 38° Northeast 157 181 4,000 -60 Descending Potomac TRACON
02:47PM 38.9000 -77.8000 49° Northeast 156 180 4,000  Level Potomac TRACON
02:48PM 38.9167 -77.7667 57° Northeast 143 165 4,000 -240 Level Potomac TRACON
02:49PM 38.9500 -77.7333 38° Northeast 153 176 3,600 -600 Descending Potomac TRACON
02:50PM 38.9833 -77.6833 49° Northeast 162 186 2,800 -600 Descending Potomac TRACON
02:51PM 39.0167 -77.6500 38° Northeast 153 176 2,400 -540 Descending Potomac TRACON
02:52PM 39.0500 -77.6167 38° Northeast 147 169 1,800 -600 Descending Potomac TRACON
02:53PM 39.0833 -77.6000 21° North 144 166 1,300 -360 Descending Potomac TRACON
02:54PM 39.0500 -77.5833 159° South 139 160 1,100 -360 Descending Potomac TRACON
02:55PM 39.0667 -77.5500 57° Northeast 109 125 600 -420 Descending Potomac TRACON
02:56PM 39.0833 -77.5667 322° Northwest 120 138 300 -300 Descending Potomac TRACON